Time;durP1;ratioP1;P1;durP2;ratioP2;P2;SDS_P1;SDS_P2;PMS_P1;PMS_P2;Temp;Humidity;BMP_temperature;BMP_pressure;BME280_temperature;BME280_humidity;BME280_pressure;Samples;Min_cycle;Max_cycle;Signal;HPM_P1;HPM_P2
2021/04/19 00:00:10;;;;;;;74.25;46.53;;;;;;;7.61;80.87;93629.84;5007154;28;20046;-92
2021/04/19 00:02:42;;;;;;;57.70;38.20;;;;;;;7.82;80.67;93659.38;5014594;28;20034;-92
2021/04/19 00:05:15;;;;;;;65.22;39.40;;;;;;;7.80;80.65;93643.09;5005158;28;20052;-92
2021/04/19 00:08:02;;;;;;;65.13;45.08;;;;;;;7.89;80.49;93645.94;5008406;28;20042;-92
2021/04/19 00:10:58;;;;;;;51.40;35.47;;;;;;;8.09;80.06;93667.63;4984652;28;20041;-92
2021/04/19 00:13:29;;;;;;;;;;;;;;;8.32;79.51;93702.19;4961190;28;20073;-91
2021/04/19 00:15:58;;;;;;;51.28;34.10;;;;;;;7.87;79.58;93664.59;4993392;28;20385;-92
2021/04/19 00:18:27;;;;;;;57.35;35.35;;;;;;;7.72;80.11;93662.13;5008563;28;20045;-92
2021/04/19 00:20:58;;;;;;;52.17;34.88;;;;;;;7.86;80.22;93676.22;4983493;28;20107;-92
2021/04/19 00:23:24;;;;;;;53.17;35.20;;;;;;;7.46;80.33;93626.50;5016411;28;20030;-92
2021/04/19 00:25:50;;;;;;;63.78;39.67;;;;;;;7.70;80.66;93674.75;4940901;28;20056;-91
2021/04/19 00:28:15;;;;;;;67.68;40.63;;;;;;;7.64;81.10;93673.19;5001930;28;20034;-92
2021/04/19 00:30:41;;;;;;;69.22;41.88;;;;;;;7.58;81.17;93669.00;5011150;28;20046;-92
2021/04/19 00:33:07;;;;;;;76.00;43.38;;;;;;;7.64;81.65;93681.09;5011235;28;20064;-92
2021/04/19 00:35:35;;;;;;;74.45;43.13;;;;;;;7.34;82.10;93650.50;5001231;28;20148;-92
2021/04/19 00:38:01;;;;;;;78.50;40.17;;;;;;;7.41;82.40;93666.78;5012601;28;20034;-91
2021/04/19 00:40:26;;;;;;;72.03;41.17;;;;;;;7.59;82.13;93689.78;5007303;28;20526;-92
2021/04/19 00:42:55;;;;;;;77.30;42.17;;;;;;;7.26;82.62;93636.09;4999785;28;20052;-90
2021/04/19 00:45:24;;;;;;;77.03;40.92;;;;;;;7.20;82.57;93613.50;5013604;28;20541;-91
2021/04/19 00:47:49;;;;;;;87.40;47.08;;;;;;;7.34;82.57;93630.25;4954112;28;20175;-91
2021/04/19 00:50:27;;;;;;;78.03;42.80;;;;;;;7.62;82.59;93672.69;4979207;28;20428;-91
2021/04/19 00:52:59;;;;;;;109.95;53.58;;;;;;;7.24;82.63;93605.88;4999961;28;20164;-93
2021/04/19 00:55:25;;;;;;;87.35;47.03;;;;;;;7.78;82.40;93668.88;4998129;28;20053;-92
2021/04/19 00:57:50;;;;;;;80.07;41.60;;;;;;;7.65;81.94;93640.59;5006783;28;21265;-91
2021/04/19 01:00:29;;;;;;;71.00;40.45;;;;;;;7.43;81.98;93616.56;5011569;28;20128;-93
2021/04/19 01:02:55;;;;;;;92.35;44.25;;;;;;;7.80;82.33;93662.31;5012211;28;20076;-91
2021/04/19 01:05:33;;;;;;;69.90;41.25;;;;;;;7.78;82.02;93643.38;5013971;28;20022;-93
2021/04/19 01:08:02;;;;;;;73.05;40.50;;;;;;;7.72;81.71;93638.44;5008651;28;20048;-92
2021/04/19 01:10:28;;;;;;;76.10;41.03;;;;;;;7.68;81.51;93626.88;5011802;28;20121;-92
2021/04/19 01:12:54;;;;;;;75.50;41.80;;;;;;;7.43;81.85;93595.53;5014014;28;20456;-92
2021/04/19 01:15:22;;;;;;;69.63;38.83;;;;;;;7.38;81.80;93599.72;5016041;28;20049;-92
2021/04/19 01:17:48;;;;;;;72.50;39.70;;;;;;;7.40;81.57;93591.59;4989004;28;20615;-92
2021/04/19 01:20:17;;;;;;;76.10;43.00;;;;;;;7.74;81.82;93659.97;5007493;28;20021;-92
2021/04/19 01:22:44;;;;;;;83.35;42.53;;;;;;;7.48;82.32;93629.66;5032931;28;20046;-92
2021/04/19 01:25:14;;;;;;;87.05;44.03;;;;;;;7.40;81.96;93608.16;4996751;28;20054;-92
2021/04/19 01:27:43;;;;;;;82.25;40.97;;;;;;;7.36;81.67;93598.44;4994089;28;20485;-92
2021/04/19 01:30:26;;;;;;;81.07;42.13;;;;;;;7.63;82.02;93637.44;4984779;28;20049;-92
2021/04/19 01:32:55;;;;;;;81.35;42.15;;;;;;;7.68;82.00;93658.44;5001500;28;20128;-92
2021/04/19 01:35:47;;;;;;;84.68;42.63;;;;;;;7.71;81.98;93644.75;5029841;28;20025;-92
2021/04/19 01:38:21;;;;;;;95.60;43.17;;;;;;;7.73;81.48;93603.94;5013326;28;20134;-92
2021/04/19 01:40:49;;;;;;;107.00;44.25;;;;;;;7.66;81.56;93600.06;4938920;28;20082;-94
2021/04/19 01:43:15;;;;;;;126.13;51.05;;;;;;;7.78;81.53;93624.97;4963130;28;20111;-93
2021/04/19 01:45:41;;;;;;;108.32;44.67;;;;;;;7.55;81.90;93598.56;4955929;28;20644;-93
2021/04/19 01:48:07;;;;;;;110.32;40.85;;;;;;;8.02;81.87;93658.44;4958271;28;20046;-93
2021/04/19 01:50:37;;;;;;;145.48;43.03;;;;;;;7.73;81.29;93606.59;4982509;28;20025;-91
2021/04/19 01:53:06;;;;;;;98.28;41.45;;;;;;;7.69;81.08;93599.53;5003207;28;20034;-93
2021/04/19 01:55:39;;;;;;;99.47;42.30;;;;;;;7.74;81.42;93617.91;4998284;28;20041;-93
2021/04/19 01:58:18;;;;;;;91.90;42.38;;;;;;;7.58;81.27;93598.81;5011009;28;20367;-92
2021/04/19 02:00:51;;;;;;;137.88;43.95;;;;;;;7.83;81.53;93653.06;4992744;28;20044;-91
2021/04/19 02:03:59;;;;;;;103.82;43.00;;;;;;;7.44;81.97;93610.22;5012766;28;20410;-93
2021/04/19 02:06:46;;;;;;;99.25;41.67;;;;;;;7.62;82.45;93649.81;5006227;28;20498;-93
2021/04/19 02:09:37;;;;;;;84.78;38.83;;;;;;;7.27;82.17;93576.44;5029240;28;20050;-93
2021/04/19 02:12:09;;;;;;;88.20;39.47;;;;;;;7.77;82.01;93644.44;5017653;28;20393;-93
2021/04/19 02:14:56;;;;;;;86.03;38.88;;;;;;;7.30;81.99;93576.66;4990255;28;20025;-94
2021/04/19 02:17:56;;;;;;;81.35;37.70;;;;;;;7.63;82.07;93616.38;5030579;28;20482;-93
2021/04/19 02:21:09;;;;;;;88.22;37.55;;;;;;;7.83;82.07;93632.03;5001124;28;20417;-93
2021/04/19 02:23:45;;;;;;;77.45;38.63;;;;;;;7.70;82.08;93604.50;4967801;28;20136;-94
2021/04/19 02:26:21;;;;;;;92.90;44.00;;;;;;;7.93;81.93;93623.25;4987517;28;20503;-92
2021/04/19 02:28:49;;;;;;;;;;;;;;;7.99;81.96;93622.97;5033052;28;20033;-93
2021/04/19 02:31:21;;;;;;;72.53;36.30;;;;;;;8.04;81.28;93617.66;5012023;28;20077;-93
2021/04/19 02:33:53;;;;;;;116.45;36.35;;;;;;;7.86;81.05;93585.97;5014321;28;20056;-93
2021/04/19 02:36:22;;;;;;;63.63;33.03;;;;;;;8.05;80.98;93616.59;5003432;28;20033;-92
2021/04/19 02:38:50;;;;;;;58.97;31.98;;;;;;;7.97;80.28;93595.34;5003306;28;20029;-93
2021/04/19 02:41:21;;;;;;;59.92;29.70;;;;;;;7.74;80.27;93565.28;5015782;28;20025;-92
2021/04/19 02:43:48;;;;;;;63.40;32.08;;;;;;;7.62;80.22;93547.25;4983558;28;20210;-92
2021/04/19 02:46:23;;;;;;;59.25;31.70;;;;;;;7.68;80.26;93554.03;4991016;28;20037;-92
2021/04/19 02:48:49;;;;;;;71.32;34.05;;;;;;;7.84;80.41;93570.47;5011941;28;20033;-93
2021/04/19 02:51:15;;;;;;;115.00;41.67;;;;;;;7.85;80.37;93572.03;5010065;28;20041;-92
2021/04/19 02:53:47;;;;;;;78.78;34.47;;;;;;;8.08;80.13;93597.59;4978222;28;20024;-92
2021/04/19 02:56:14;;;;;;;74.38;35.58;;;;;;;7.77;79.94;93536.56;4975392;28;20109;-93
2021/04/19 02:58:58;;;;;;;130.75;39.05;;;;;;;8.13;80.01;93594.16;4977708;28;20045;-91
2021/04/19 03:01:33;;;;;;;65.30;35.20;;;;;;;7.73;79.85;93532.94;5015662;28;20118;-93
2021/04/19 03:04:10;;;;;;;75.85;35.83;;;;;;;7.68;79.93;93526.94;4959475;28;20100;-93
2021/04/19 03:06:39;;;;;;;70.72;35.10;;;;;;;7.93;80.01;93571.44;5008024;28;20041;-93
2021/04/19 03:09:10;;;;;;;72.32;36.45;;;;;;;7.82;79.85;93560.22;4977930;28;20762;-93
2021/04/19 03:11:38;;;;;;;64.65;36.42;;;;;;;8.11;79.80;93588.38;4979010;28;20049;-93
2021/04/19 03:14:08;;;;;;;84.20;35.63;;;;;;;8.07;79.30;93579.47;5017060;28;20034;-93
2021/04/19 03:16:36;;;;;;;71.32;36.35;;;;;;;7.89;79.01;93557.25;5013178;28;20080;-93
2021/04/19 03:19:12;;;;;;;65.22;35.50;;;;;;;8.12;78.89;93593.34;5028437;28;20057;-93
2021/04/19 03:21:42;;;;;;;65.88;34.72;;;;;;;7.84;79.19;93559.94;4961191;28;20047;-93
2021/04/19 03:24:15;;;;;;;75.28;37.42;;;;;;;8.00;79.76;93584.28;4998418;28;20502;-93
2021/04/19 03:26:52;;;;;;;74.05;37.80;;;;;;;7.87;79.66;93553.34;4973096;28;20029;-93
2021/04/19 03:29:34;;;;;;;;;;;;;;;;;;;;;
2021/04/19 03:32:09;;;;;;;70.03;36.58;;;;;;;7.63;79.64;93526.97;4986207;28;20130;-93
2021/04/19 03:34:44;;;;;;;69.68;35.85;;;;;;;7.72;79.50;93528.72;4946853;28;20083;-93
2021/04/19 03:37:22;;;;;;;75.63;36.90;;;;;;;7.92;79.35;93559.34;4921251;28;20121;-93
2021/04/19 03:40:12;;;;;;;65.85;34.78;;;;;;;8.28;78.41;93586.88;4935211;28;20031;-93
2021/04/19 03:42:42;;;;;;;65.40;35.35;;;;;;;8.04;78.19;93553.72;5012384;28;20037;-92
2021/04/19 03:45:20;;;;;;;71.53;37.10;;;;;;;7.70;78.60;93503.78;4941463;28;20062;-93
2021/04/19 03:47:53;;;;;;;63.75;34.85;;;;;;;7.78;78.98;93522.38;4955169;28;20037;-93
2021/04/19 03:50:22;;;;;;;114.72;39.78;;;;;;;7.65;79.18;93504.63;5015892;28;20021;-92
2021/04/19 03:52:50;;;;;;;72.47;36.40;;;;;;;7.75;79.90;93532.66;5010796;28;20033;-92
2021/04/19 03:55:17;;;;;;;70.60;36.63;;;;;;;7.61;79.38;93502.81;5008805;28;20037;-93
2021/04/19 03:57:46;;;;;;;73.32;37.38;;;;;;;7.67;79.32;93520.13;5014443;28;20100;-92
2021/04/19 04:00:15;;;;;;;77.30;38.60;;;;;;;7.78;80.09;93555.78;5007525;28;20161;-92
2021/04/19 04:02:43;;;;;;;75.47;37.72;;;;;;;7.43;80.33;93522.66;5015246;28;20022;-93
2021/04/19 04:05:12;;;;;;;85.57;39.20;;;;;;;7.56;80.77;93564.13;5018760;28;20402;-93
2021/04/19 04:07:42;;;;;;;68.22;36.65;;;;;;;7.34;81.10;93525.09;5012673;28;20079;-93
2021/04/19 04:10:09;;;;;;;88.07;43.92;;;;;;;7.05;81.18;93490.09;5017015;28;20045;-93
2021/04/19 04:12:36;;;;;;;89.93;43.42;;;;;;;7.50;81.46;93565.22;5008761;28;20126;-93
2021/04/19 04:15:03;;;;;;;99.53;46.65;;;;;;;7.44;81.70;93566.31;5004360;28;20437;-93
2021/04/19 04:17:29;;;;;;;91.57;44.42;;;;;;;7.25;81.86;93512.81;5012346;28;20428;-93
2021/04/19 04:19:54;;;;;;;89.15;43.35;;;;;;;7.11;81.89;93486.41;4939993;28;20161;-93
2021/04/19 04:22:23;;;;;;;73.18;42.45;;;;;;;7.43;81.66;93522.66;5013784;28;20103;-93
2021/04/19 04:24:49;;;;;;;74.53;42.25;;;;;;;7.21;81.69;93499.47;5011384;28;20037;-92
2021/04/19 04:27:18;;;;;;;76.72;40.50;;;;;;;7.64;81.83;93566.16;4999236;28;20049;-91
2021/04/19 04:29:52;;;;;;;72.53;38.78;;;;;;;7.66;82.05;93571.16;5010858;28;20050;-93
2021/04/19 04:32:20;;;;;;;71.85;39.63;;;;;;;7.29;81.93;93509.38;5039196;28;20059;-93
2021/04/19 04:34:45;;;;;;;81.65;45.65;;;;;;;7.67;81.92;93565.59;5012461;28;20034;-94
2021/04/19 04:37:11;;;;;;;72.30;40.05;;;;;;;7.37;82.15;93510.66;5012208;28;20072;-92
2021/04/19 04:39:36;;;;;;;76.43;39.05;;;;;;;7.43;82.59;93546.31;5032523;28;20039;-92
2021/04/19 04:42:04;;;;;;;75.47;42.30;;;;;;;7.19;82.79;93508.66;5017640;28;20673;-93
2021/04/19 04:44:39;;;;;;;78.93;39.40;;;;;;;7.12;83.13;93509.00;5015520;28;20463;-91
2021/04/19 04:47:23;;;;;;;82.32;41.05;;;;;;;7.11;84.45;93567.84;5015406;28;20160;-90
2021/04/19 04:50:11;;;;;;;80.75;40.00;;;;;;;7.06;85.06;93569.72;5018862;28;20038;-85
2021/04/19 04:52:46;;;;;;;76.10;38.78;;;;;;;6.80;85.70;93529.66;5015335;28;20117;-92
2021/04/19 04:55:14;;;;;;;75.70;36.83;;;;;;;6.80;85.98;93558.56;5019895;28;20635;-91
2021/04/19 04:57:44;;;;;;;76.40;38.08;;;;;;;6.57;86.57;93519.81;5017097;28;20033;-92
2021/04/19 05:00:12;;;;;;;83.03;41.15;;;;;;;6.85;86.68;93559.31;5021903;28;20041;-93
2021/04/19 05:02:39;;;;;;;83.50;42.10;;;;;;;6.64;87.11;93526.34;4991755;28;20237;-92
2021/04/19 05:05:09;;;;;;;76.47;41.72;;;;;;;6.93;86.78;93565.88;4969693;28;20156;-92
2021/04/19 05:07:38;;;;;;;68.03;36.58;;;;;;;7.08;86.38;93570.25;4978676;28;20072;-93
2021/04/19 05:10:14;;;;;;;73.45;40.67;;;;;;;6.83;86.07;93492.38;5003563;28;20127;-94
2021/04/19 05:12:44;;;;;;;70.65;35.92;;;;;;;7.28;85.73;93570.88;4958411;28;20055;-94
2021/04/19 05:15:12;;;;;;;63.30;36.60;;;;;;;7.32;85.33;93569.31;4999464;28;20498;-95
2021/04/19 05:17:42;;;;;;;59.13;33.40;;;;;;;7.22;84.87;93531.78;5013929;28;20120;-94
2021/04/19 05:20:15;;;;;;;60.78;32.95;;;;;;;7.31;84.25;93530.94;5020838;28;20461;-94
2021/04/19 05:23:06;;;;;;;;;;;;;;;;;;;;;
2021/04/19 05:26:06;;;;;;;49.20;30.10;;;;;;;7.41;83.29;93535.31;4975566;28;20049;-92
2021/04/19 05:28:41;;;;;;;49.40;31.27;;;;;;;7.61;82.94;93573.81;4981904;28;20045;-93
2021/04/19 05:31:12;;;;;;;53.03;30.42;;;;;;;7.46;82.86;93552.91;4995356;28;20413;-92
2021/04/19 05:34:01;;;;;;;50.70;30.05;;;;;;;7.49;82.84;93536.56;5014843;28;20478;-93
2021/04/19 05:36:30;;;;;;;51.80;29.92;;;;;;;7.46;82.96;93505.56;4941038;28;20080;-92
2021/04/19 05:42:07;;;;;;;53.83;32.70;;;;;;;7.66;83.64;93515.91;5009087;28;20045;-93
2021/04/19 05:44:37;;;;;;;76.88;32.22;;;;;;;7.81;83.39;93519.19;5004149;28;20441;-93
2021/04/19 05:47:06;;;;;;;48.38;30.15;;;;;;;8.18;83.11;93571.19;5004779;28;20390;-92
2021/04/19 05:49:35;;;;;;;47.25;28.85;;;;;;;8.12;82.43;93572.31;4991363;28;20596;-93
2021/04/19 05:52:06;;;;;;;56.13;33.10;;;;;;;7.71;82.10;93506.16;5012360;28;20060;-93
2021/04/19 05:54:37;;;;;;;63.00;35.20;;;;;;;7.97;82.03;93543.50;5009481;28;20099;-92
2021/04/19 05:57:43;;;;;;;52.45;31.45;;;;;;;7.72;81.94;93499.03;5005680;28;20037;-92
2021/04/19 06:00:39;;;;;;;56.97;35.28;;;;;;;7.97;81.69;93532.19;5009190;28;20045;-93
2021/04/19 06:03:12;;;;;;;53.08;33.75;;;;;;;8.19;81.90;93549.09;4973929;28;20132;-92
2021/04/19 06:06:00;;;;;;;62.33;37.05;;;;;;;7.79;81.84;93496.84;4965799;28;20030;-92
2021/04/19 06:08:36;;;;;;;48.75;28.77;;;;;;;7.81;82.31;93519.19;4988547;28;20091;-91
2021/04/19 06:11:18;;;;;;;48.75;30.10;;;;;;;7.83;82.03;93516.28;5019460;28;20502;-92
2021/04/19 06:13:49;;;;;;;47.72;29.63;;;;;;;7.95;81.78;93516.69;4983631;28;20153;-92
2021/04/19 06:16:22;;;;;;;49.05;31.23;;;;;;;8.15;81.86;93545.44;4991037;28;20038;-92
2021/04/19 06:19:01;;;;;;;;;;;;;;;;;;;;;
2021/04/19 06:22:02;;;;;;;39.67;23.80;;;;;;;7.58;81.85;93491.00;4922876;28;20051;-92
2021/04/19 06:25:21;;;;;;;37.97;23.35;;;;;;;7.65;81.97;93493.31;4973913;28;20134;-92
2021/04/19 06:29:13;;;;;;;;;;;;;;;;;;;;;
2021/04/19 06:38:03;;;;;;;35.30;23.70;;;;;;;7.72;82.14;93478.75;4828670;28;20395;-92
2021/04/19 06:40:34;;;;;;;31.75;23.80;;;;;;;7.96;82.13;93515.63;4936622;28;20035;-92
2021/04/19 06:43:24;;;;;;;36.17;24.77;;;;;;;8.26;81.97;93536.34;4892589;28;20519;-92
2021/04/19 06:46:46;;;;;;;29.48;18.95;;;;;;;8.29;81.29;93540.28;4820426;28;20041;-91
2021/04/19 06:49:15;;;;;;;27.88;17.23;;;;;;;8.00;80.43;93500.06;4868596;28;20136;-92
2021/04/19 06:51:41;;;;;;;29.67;20.13;;;;;;;8.19;80.18;93511.44;4928241;28;20428;-90
2021/04/19 06:54:07;;;;;;;26.38;19.80;;;;;;;8.12;80.55;93517.03;4881800;28;20136;-91
2021/04/19 06:57:04;;;;;;;28.52;20.10;;;;;;;7.84;80.47;93481.81;4959860;28;20216;-90
2021/04/19 06:59:43;;;;;;;50.42;34.88;;;;;;;8.15;80.44;93498.06;5004021;28;20052;-92
2021/04/19 07:02:35;;;;;;;74.88;47.28;;;;;;;8.05;80.35;93482.38;5003266;28;20158;-91
2021/04/19 07:05:17;;;;;;;;;;;;;;;;;;;;;
2021/04/19 07:08:12;;;;;;;37.03;25.95;;;;;;;8.11;79.96;93483.88;4967653;28;20041;-91
2021/04/19 07:17:52;;;;;;;;;;;;;;;;;;;;;
2021/04/19 07:23:55;;;;;;;65.50;25.85;;;;;;;8.45;78.96;93509.34;4929008;28;20406;-91
2021/04/19 07:29:18;;;;;;;38.53;28.25;;;;;;;8.32;78.89;93483.69;5099265;22;20145;-91
2021/04/19 07:32:27;;;;;;;33.30;24.65;;;;;;;8.65;78.32;93540.66;4871023;28;20527;-90
2021/04/19 07:35:18;;;;;;;;;;;;;;;;;;;;;
2021/04/19 07:38:36;;;;;;;;;;;;;;;;;;;;;
2021/04/19 07:41:06;;;;;;;41.20;28.45;;;;;;;8.00;78.88;93469.28;4902828;28;20048;-89
2021/04/19 08:01:21;;;;;;;19.30;11.52;;;;;;;6.99;84.98;93495.69;4923945;23;20229;-90
2021/04/19 08:11:48;;;;;;;10.27;7.03;;;;;;;6.78;86.77;93481.91;4899876;22;20228;-89
2021/04/19 08:15:20;;;;;;;10.95;6.07;;;;;;;6.80;87.08;93503.41;4922390;23;20072;-92
2021/04/19 08:25:09;;;;;;;5.55;3.70;;;;;;;6.59;85.86;93487.00;4845585;28;20067;-89
2021/04/19 08:27:39;;;;;;;2.85;2.33;;;;;;;6.67;85.75;93504.81;4750874;29;20554;-89
2021/04/19 08:30:47;;;;;;;6.15;3.20;;;;;;;6.20;85.43;93436.28;4843911;29;20212;-91
2021/04/19 08:34:10;;;;;;;4.20;2.90;;;;;;;6.14;85.80;93422.41;4838646;28;20134;-91
2021/04/19 08:36:48;;;;;;;7.45;3.45;;;;;;;6.61;85.50;93489.34;4882455;29;20576;-89
2021/04/19 08:39:33;;;;;;;3.08;2.78;;;;;;;6.51;86.04;93454.22;4831406;29;20069;-89
2021/04/19 08:42:36;;;;;;;3.15;2.55;;;;;;;6.80;86.46;93482.41;4856509;23;20087;-89
2021/04/19 08:45:29;;;;;;;3.67;3.00;;;;;;;6.66;86.50;93452.53;4873779;28;20135;-89
2021/04/19 08:48:19;;;;;;;3.22;2.92;;;;;;;6.47;85.49;93421.69;4894519;28;20045;-90
2021/04/19 09:00:42;;;;;;;5.40;4.57;;;;;;;6.98;85.62;93471.25;4774945;26;20520;-87
2021/04/19 09:03:33;;;;;;;5.95;4.72;;;;;;;7.02;86.51;93469.66;4878953;28;20074;-92
2021/04/19 09:06:58;;;;;;;;;;;;;;;;;;;;;
2021/04/19 10:59:26;;;;;;;;;;;;;;;9.60;74.61;93407.72;4397678;23;20480;-92
2021/04/19 11:05:47;;;;;;;10.73;8.18;;;;;;;9.50;76.16;93390.22;4762433;29;20061;-92
2021/04/19 11:08:15;;;;;;;21.20;13.00;;;;;;;9.50;76.15;93380.44;4766704;29;20618;-92
2021/04/19 11:11:23;;;;;;;10.68;8.13;;;;;;;9.48;76.59;93397.66;4806239;29;20567;-93
2021/04/19 11:17:09;;;;;;;7.30;6.13;;;;;;;9.19;74.74;93325.94;4764415;29;20652;-92
2021/04/19 11:20:29;;;;;;;10.35;6.78;;;;;;;9.71;75.43;93396.69;4760096;29;20137;-92
2021/04/19 11:22:58;;;;;;;18.45;10.13;;;;;;;9.62;74.78;93395.03;4728469;29;20074;-91
2021/04/19 11:25:30;;;;;;;23.13;10.90;;;;;;;9.19;75.54;93325.94;4785308;29;20086;-90
2021/04/19 11:28:29;;;;;;;8.57;7.20;;;;;;;9.60;75.11;93394.53;4710200;29;20052;-92
2021/04/19 11:31:28;;;;;;;11.30;7.97;;;;;;;9.66;75.63;93388.88;4711200;29;20067;-93
2021/04/19 11:34:08;;;;;;;17.20;11.43;;;;;;;9.61;75.33;93382.91;4730371;29;20051;-90
2021/04/19 11:36:47;;;;;;;11.48;9.52;;;;;;;9.20;75.28;93316.91;4770138;29;20138;-91
2021/04/19 11:39:14;;;;;;;12.35;8.43;;;;;;;9.12;75.68;93319.16;4781219;29;20038;-91
2021/04/19 11:41:40;;;;;;;11.25;8.52;;;;;;;9.38;76.09;93342.44;4787543;29;20514;-90
2021/04/19 11:44:36;;;;;;;14.40;9.18;;;;;;;9.19;75.17;93318.03;4778038;29;20031;-93
2021/04/19 11:47:14;;;;;;;;;;;;;;;;;;;;;
2021/04/19 11:50:34;;;;;;;;;;;;;;;;;;;;;
2021/04/19 11:53:07;;;;;;;12.68;9.43;;;;;;;9.26;75.54;93352.69;4662044;30;20047;-93
2021/04/19 11:55:38;;;;;;;22.25;12.30;;;;;;;9.24;76.34;93339.00;4696429;29;20051;-91
2021/04/19 11:58:24;;;;;;;11.57;8.32;;;;;;;9.02;75.68;93315.94;4786415;29;20051;-92
2021/04/19 12:03:48;;;;;;;9.57;7.97;;;;;;;9.46;76.12;93378.69;4707846;30;20249;-90
2021/04/19 12:09:23;;;;;;;10.13;7.43;;;;;;;8.97;76.29;93319.44;4708018;30;20139;-94
2021/04/19 12:11:51;;;;;;;8.63;6.50;;;;;;;9.09;75.97;93350.56;4716227;30;20032;-89
2021/04/19 12:14:18;;;;;;;9.32;6.30;;;;;;;9.11;76.19;93349.22;4775838;29;20126;-89
2021/04/19 12:16:48;;;;;;;11.65;6.65;;;;;;;8.82;76.58;93330.22;4773993;29;20741;-89
2021/04/19 12:19:14;;;;;;;7.00;5.95;;;;;;;9.09;76.95;93369.81;4790837;29;20114;-89
2021/04/19 12:21:40;;;;;;;6.97;6.25;;;;;;;8.94;77.06;93324.50;4789764;29;20500;-89
2021/04/19 12:24:12;;;;;;;12.05;9.68;;;;;;;8.87;76.63;93314.31;4785566;29;20482;-89
2021/04/19 12:26:40;;;;;;;11.30;9.45;;;;;;;9.20;76.71;93369.66;4789327;29;20066;-88
2021/04/19 12:29:09;;;;;;;12.20;8.65;;;;;;;9.00;77.28;93332.00;4781169;29;21151;-89
2021/04/19 12:31:34;;;;;;;13.63;11.18;;;;;;;9.02;76.54;93323.84;4748030;29;20061;-89
2021/04/19 12:34:00;;;;;;;10.68;7.97;;;;;;;8.85;76.20;93308.56;4774568;29;20051;-89
2021/04/19 12:36:30;;;;;;;8.27;6.88;;;;;;;8.78;75.68;93308.16;4787184;29;20051;-88
2021/04/19 12:38:56;;;;;;;7.20;5.45;;;;;;;8.92;76.22;93310.81;4771183;29;20497;-89
2021/04/19 12:41:21;;;;;;;9.38;6.72;;;;;;;9.00;75.77;93329.38;4786818;29;20026;-89
2021/04/19 12:43:53;;;;;;;8.63;6.82;;;;;;;8.91;76.41;93294.22;4786816;29;20047;-89
2021/04/19 12:46:19;;;;;;;17.30;8.00;;;;;;;9.11;76.28;93325.50;4753664;29;20090;-89
2021/04/19 12:48:47;;;;;;;13.77;10.40;;;;;;;9.16;76.53;93297.50;4776201;29;20129;-89
2021/04/19 12:51:19;;;;;;;27.75;14.88;;;;;;;9.22;75.34;93289.22;4736816;29;20062;-89
2021/04/19 12:53:56;;;;;;;7.72;4.68;;;;;;;9.58;74.35;93356.03;4767431;29;20038;-91
2021/04/19 12:56:25;;;;;;;7.05;5.00;;;;;;;9.49;74.71;93351.72;4776835;29;20508;-88
2021/04/19 12:58:56;;;;;;;7.60;3.92;;;;;;;9.11;73.99;93295.72;4740294;29;20050;-90
2021/04/19 13:01:29;;;;;;;7.35;3.28;;;;;;;9.33;73.79;93332.78;4785594;29;20065;-93
2021/04/19 13:04:16;;;;;;;4.07;3.55;;;;;;;9.09;74.65;93295.22;4739464;29;20043;-92
2021/04/19 13:07:08;;;;;;;7.88;4.00;;;;;;;9.56;74.72;93341.56;4767954;29;20082;-92
2021/04/19 13:12:13;;;;;;;4.72;3.30;;;;;;;9.39;73.91;93326.31;4917754;23;20057;-90
2021/04/19 13:15:07;;;;;;;5.88;4.28;;;;;;;9.58;74.78;93339.41;4845727;29;20113;-95
2021/04/19 13:17:42;;;;;;;5.45;3.65;;;;;;;9.20;73.81;93303.75;4841913;29;20044;-95
2021/04/19 13:20:39;;;;;;;6.63;3.10;;;;;;;9.03;73.79;93280.59;4841765;29;20404;-94
2021/04/19 13:23:02;;;;;;;6.25;2.88;;;;;;;9.29;73.29;93291.44;4842466;29;20041;-91
2021/04/19 13:25:39;;;;;;;3.17;2.42;;;;;;;9.09;72.95;93269.66;4821787;29;20041;-91
2021/04/19 13:28:08;;;;;;;3.55;3.03;;;;;;;9.56;72.15;93333.66;4775831;29;20543;-89
2021/04/19 13:30:42;;;;;;;4.45;3.13;;;;;;;9.27;72.35;93312.06;4765007;29;20300;-92
2021/04/19 13:33:23;;;;;;;19.67;10.32;;;;;;;9.34;71.24;93338.81;4794205;29;20082;-89
2021/04/19 13:35:52;;;;;;;4.00;2.08;;;;;;;8.98;71.18;93268.28;4806820;29;20039;-89
2021/04/19 13:38:31;;;;;;;3.35;2.15;;;;;;;9.09;70.03;93295.22;4830646;29;20029;-91
2021/04/19 13:41:15;;;;;;;3.88;2.78;;;;;;;9.35;69.23;93330.63;4778576;29;20057;-90
2021/04/19 13:44:02;;;;;;;4.72;2.47;;;;;;;8.94;69.40;93283.09;4817870;29;20543;-90
2021/04/19 13:46:36;;;;;;;4.57;2.42;;;;;;;9.02;70.45;93293.00;4812157;29;20053;-89
2021/04/19 13:49:07;;;;;;;27.97;14.97;;;;;;;9.11;70.54;93304.41;4755232;29;20178;-88
2021/04/19 13:51:36;;;;;;;4.78;3.33;;;;;;;9.23;69.76;93284.72;4815164;29;20048;-88
2021/04/19 13:54:28;;;;;;;4.15;3.30;;;;;;;9.24;70.74;93286.25;4824575;29;20052;-91
2021/04/19 13:57:12;;;;;;;12.38;9.07;;;;;;;9.09;69.84;93247.78;4784997;29;20058;-93
2021/04/19 13:59:40;;;;;;;7.65;4.00;;;;;;;9.20;70.35;93253.66;4811632;29;20033;-88
2021/04/19 14:02:06;;;;;;;6.78;3.92;;;;;;;9.18;71.52;93261.09;4856581;29;20110;-88
2021/04/19 14:04:38;;;;;;;5.63;4.30;;;;;;;9.37;72.61;93280.22;4850353;29;20033;-89
2021/04/19 14:07:09;;;;;;;3.53;2.47;;;;;;;9.63;71.18;93315.56;4757090;29;20056;-89
2021/04/19 14:10:21;;;;;;;3.03;2.70;;;;;;;9.58;70.64;93307.75;4751322;30;20039;-87
2021/04/19 14:12:54;;;;;;;3.65;2.65;;;;;;;9.20;70.59;93264.19;4710227;29;20063;-88
2021/04/19 14:17:59;;;;;;;2.70;2.47;;;;;;;9.49;69.98;93291.06;4923523;24;20064;-91
2021/04/19 14:27:24;;;;;;;6.07;3.13;;;;;;;9.54;69.84;93317.34;4712811;29;20044;-90
2021/04/19 14:30:06;;;;;;;4.00;2.42;;;;;;;9.38;68.38;93324.75;4741015;29;20625;-93
2021/04/19 14:33:10;;;;;;;5.38;2.70;;;;;;;9.14;69.35;93274.03;4730977;29;20046;-89
2021/04/19 14:36:14;;;;;;;4.18;3.22;;;;;;;9.05;69.47;93252.06;4783269;29;20037;-92
2021/04/19 14:42:08;;;;;;;18.77;11.30;;;;;;;9.32;71.39;93267.16;4742298;29;20048;-92
2021/04/19 14:44:36;;;;;;;12.90;9.57;;;;;;;9.11;71.99;93243.78;4810053;29;20026;-92
2021/04/19 14:47:15;;;;;;;;;;;;;;;;;;;;;
2021/04/19 14:50:16;;;;;;;;;;;;;;;;;;;;;
2021/04/19 14:52:42;;;;;;;13.40;10.18;;;;;;;9.26;71.85;93269.09;4744831;29;20050;-91
2021/04/19 14:56:09;;;;;;;60.25;34.53;;;;;;;9.59;71.00;93301.41;4796713;29;20558;-92
2021/04/19 14:58:34;;;;;;;5.85;4.38;;;;;;;9.24;68.75;93262.53;4751220;29;20054;-93
2021/04/19 15:01:03;;;;;;;6.72;3.17;;;;;;;8.93;67.99;93252.56;4772804;29;20038;-91
2021/04/19 15:03:52;;;;;;;3.22;2.58;;;;;;;8.97;67.72;93287.81;4786455;29;20082;-92
2021/04/19 15:06:17;;;;;;;5.13;3.15;;;;;;;9.05;67.91;93284.50;4786719;29;20523;-90
2021/04/19 15:08:57;;;;;;;6.53;3.60;;;;;;;8.69;67.78;93250.09;4823334;29;20034;-91
2021/04/19 15:11:23;;;;;;;3.95;3.05;;;;;;;8.61;68.30;93242.84;4810807;29;20120;-92
2021/04/19 15:13:55;;;;;;;5.00;3.92;;;;;;;8.89;68.52;93285.84;4754086;29;20565;-90
2021/04/19 15:16:30;;;;;;;6.63;4.07;;;;;;;8.82;68.53;93284.66;4820575;29;20149;-90
2021/04/19 15:19:10;;;;;;;;;;;;;;;8.92;69.67;93310.81;4844157;29;20041;-92
2021/04/19 15:21:36;;;;;;;4.30;3.35;;;;;;;8.56;70.18;93279.00;4787587;29;20147;-90
2021/04/19 15:24:01;;;;;;;6.22;4.00;;;;;;;8.55;71.61;93264.31;4771331;29;20047;-89
2021/04/19 15:26:29;;;;;;;6.95;4.47;;;;;;;8.77;70.48;93282.88;4826147;29;20521;-89
2021/04/19 15:29:12;;;;;;;;;;;;;;;;;;;;;
2021/04/19 15:31:56;;;;;;;11.93;9.57;;;;;;;8.59;72.56;93238.94;4743030;29;20139;-93
2021/04/19 15:34:31;;;;;;;6.93;5.70;;;;;;;8.87;71.03;93298.53;4804030;29;20482;-90
2021/04/19 15:37:12;;;;;;;;;;;;;;;;;;;;;
2021/04/19 15:39:56;;;;;;;10.98;8.27;;;;;;;8.85;71.67;93276.16;4842386;29;20413;-90
2021/04/19 15:42:32;;;;;;;;;;;;;;;;;;;;;
2021/04/19 15:45:18;;;;;;;17.98;12.48;;;;;;;8.76;70.24;93297.13;4820238;29;20433;-93
2021/04/19 15:48:11;;;;;;;7.50;3.83;;;;;;;8.65;70.33;93266.75;4801167;29;20026;-91
2021/04/19 15:51:19;;;;;;;7.22;3.88;;;;;;;8.65;70.37;93253.56;4763998;29;20033;-90
2021/04/19 15:54:10;;;;;;;7.65;3.95;;;;;;;8.59;69.54;93257.38;4809841;29;20033;-93
2021/04/19 15:57:31;;;;;;;19.17;8.98;;;;;;;8.79;68.90;93296.56;4755237;29;20123;-91
2021/04/19 16:00:05;;;;;;;10.15;5.45;;;;;;;8.17;69.04;93226.69;4770586;29;20195;-91
2021/04/19 16:02:44;;;;;;;;;;;;;;;;;;;;;